PWSweather.com
Personal Weather Stations
Station Observations
URBANDALE
Westwind Acres And Meredith Hills, Urbandale, IA 50322

Westwind Acres And Meredith HillsUrbandale, IA 50322

Lat: 41.643, Lon: -93.709

Elevation: 928

Station Type:

http://urbandaleweather.com

High Low Average
Temperature 32.5°F0.3°C 22.8°F-5.1°C 27.8°F-2.3°C
Dew Point 28.9°F-1.7°C 19.4°F-7.0°C 23.0°F-5.0°C
Winds 6.9 mph 11.1 kmh Calm Calm 2.0 mph WSW3.2 kmh WSW
Wind Gusts 15.0 mph24.1 kmh -- 5.0 mph8.0 kmh
Humidity 89% 71% 82%
Pressure 30.38 in1028.8 mb 30.12 in1020.0 mb -
Precipitation 0.00 in0.0 mm - -
Hour Temp Dew Point Humidity Winds Wind Gusts Pressure Precip Precip Rate Daily Precip Total
12:01 AM 32.5°F0.3°C 28.8°F-1.8°C 86% 4.0 mph NW6.4 kmh NW 6.9 mph11.1 kmh 30.12 in1020.0 mb 0.00 in0.0 mm 0.00 in0.0 mm 0.00 in0.0 mm
12:06 AM 32.4°F0.2°C 28.6°F-1.9°C 86% 4.0 mph N6.4 kmh N 6.9 mph11.1 kmh 30.12 in1020.0 mb 0.00 in0.0 mm 0.00 in0.0 mm 0.00 in0.0 mm
12:11 AM 32.4°F0.2°C 28.6°F-1.9°C 86% 2.9 mph NW4.7 kmh NW 8.1 mph13.0 kmh 30.12 in1020.0 mb 0.00 in0.0 mm 0.00 in0.0 mm 0.00 in0.0 mm
12:16 AM 32.4°F0.2°C 28.9°F-1.7°C 87% 2.9 mph NNW4.7 kmh NNW 13.0 mph20.9 kmh 30.12 in1020.0 mb 0.00 in0.0 mm 0.00 in0.0 mm 0.00 in0.0 mm
12:21 AM 32.4°F0.2°C 28.6°F-1.9°C 86% 4.0 mph WNW6.4 kmh WNW 8.1 mph13.0 kmh 30.13 in1020.3 mb 0.00 in0.0 mm 0.00 in0.0 mm 0.00 in0.0 mm
12:26 AM 32.4°F0.2°C 28.9°F-1.7°C 87% 2.9 mph NNW4.7 kmh NNW 8.1 mph13.0 kmh 30.13 in1020.3 mb 0.00 in0.0 mm 0.00 in0.0 mm 0.00 in0.0 mm
12:31 AM 32.2°F0.1°C 28.8°F-1.8°C 87% 2.9 mph NNW4.7 kmh NNW 12.1 mph19.5 kmh 30.13 in1020.3 mb 0.00 in0.0 mm 0.00 in0.0 mm 0.00 in0.0 mm
12:36 AM 32.2°F0.1°C 28.4°F-2.0°C 86% 4.0 mph NW6.4 kmh NW 10.1 mph16.3 kmh 30.13 in1020.3 mb 0.00 in0.0 mm 0.00 in0.0 mm 0.00 in0.0 mm
12:41 AM 32.0°F0.0°C 28.2°F-2.1°C 86% 4.0 mph W6.4 kmh W 11.0 mph17.7 kmh 30.14 in1020.7 mb 0.00 in0.0 mm 0.00 in0.0 mm 0.00 in0.0 mm
12:46 AM 31.8°F-0.1°C 28.0°F-2.2°C 86% 2.9 mph NW4.7 kmh NW 14.1 mph22.7 kmh 30.14 in1020.7 mb 0.00 in0.0 mm 0.00 in0.0 mm 0.00 in0.0 mm
12:51 AM 31.8°F-0.1°C 28.0°F-2.2°C 86% 2.9 mph N4.7 kmh N 8.1 mph13.0 kmh 30.14 in1020.7 mb 0.00 in0.0 mm 0.00 in0.0 mm 0.00 in0.0 mm
12:56 AM 31.8°F-0.1°C 28.0°F-2.2°C 86% 4.0 mph NNW6.4 kmh NNW 8.9 mph14.3 kmh 30.14 in1020.7 mb 0.00 in0.0 mm 0.00 in0.0 mm 0.00 in0.0 mm
01:01 AM 31.6°F-0.2°C 28.2°F-2.1°C 87% 4.0 mph N6.4 kmh N 8.9 mph14.3 kmh 30.14 in1020.7 mb 0.00 in0.0 mm 0.00 in0.0 mm 0.00 in0.0 mm
01:06 AM 31.6°F-0.2°C 28.2°F-2.1°C 87% 4.0 mph NW6.4 kmh NW 8.9 mph14.3 kmh 30.15 in1021.0 mb 0.00 in0.0 mm 0.00 in0.0 mm 0.00 in0.0 mm
01:11 AM 31.6°F-0.2°C 28.2°F-2.1°C 87% 4.0 mph NNE6.4 kmh NNE 10.1 mph16.3 kmh 30.15 in1021.0 mb 0.00 in0.0 mm 0.00 in0.0 mm 0.00 in0.0 mm
01:16 AM 31.6°F-0.2°C 28.2°F-2.1°C 87% 4.0 mph N6.4 kmh N 8.1 mph13.0 kmh 30.15 in1021.0 mb 0.00 in0.0 mm 0.00 in0.0 mm 0.00 in0.0 mm
01:21 AM 31.6°F-0.2°C 28.2°F-2.1°C 87% 4.0 mph N6.4 kmh N 10.1 mph16.3 kmh 30.15 in1021.0 mb 0.00 in0.0 mm 0.00 in0.0 mm 0.00 in0.0 mm
01:26 AM 31.8°F-0.1°C 28.4°F-2.0°C 87% 4.0 mph N6.4 kmh N 6.9 mph11.1 kmh 30.15 in1021.0 mb 0.00 in0.0 mm 0.00 in0.0 mm 0.00 in0.0 mm
01:31 AM 31.8°F-0.1°C 28.0°F-2.2°C 86% 4.0 mph N6.4 kmh N 10.1 mph16.3 kmh 30.16 in1021.3 mb 0.00 in0.0 mm 0.00 in0.0 mm 0.00 in0.0 mm
01:36 AM 31.8°F-0.1°C 28.0°F-2.2°C 86% 4.9 mph NW7.9 kmh NW 12.1 mph19.5 kmh 30.16 in1021.3 mb 0.00 in0.0 mm 0.00 in0.0 mm 0.00 in0.0 mm
01:41 AM 31.8°F-0.1°C 28.0°F-2.2°C 86% 4.0 mph NW6.4 kmh NW 10.1 mph16.3 kmh 30.17 in1021.7 mb 0.00 in0.0 mm 0.00 in0.0 mm 0.00 in0.0 mm
01:46 AM 31.8°F-0.1°C 28.0°F-2.2°C 86% 4.0 mph N6.4 kmh N 10.1 mph16.3 kmh 30.17 in1021.7 mb 0.00 in0.0 mm 0.00 in0.0 mm 0.00 in0.0 mm
01:51 AM 31.6°F-0.2°C 27.9°F-2.3°C 86% 4.9 mph N7.9 kmh N 11.0 mph17.7 kmh 30.18 in1022.0 mb 0.00 in0.0 mm 0.00 in0.0 mm 0.00 in0.0 mm
01:56 AM 31.6°F-0.2°C 27.9°F-2.3°C 86% 4.9 mph NW7.9 kmh NW 11.0 mph17.7 kmh 30.18 in1022.0 mb 0.00 in0.0 mm 0.00 in0.0 mm 0.00 in0.0 mm
02:01 AM 31.6°F-0.2°C 27.9°F-2.3°C 86% 4.9 mph NW7.9 kmh NW 11.0 mph17.7 kmh 30.18 in1022.0 mb 0.00 in0.0 mm 0.00 in0.0 mm 0.00 in0.0 mm
02:06 AM 31.5°F-0.3°C 27.5°F-2.5°C 85% 4.9 mph NNE7.9 kmh NNE 11.0 mph17.7 kmh 30.18 in1022.0 mb 0.00 in0.0 mm 0.00 in0.0 mm 0.00 in0.0 mm
02:11 AM 31.3°F-0.4°C 27.3°F-2.6°C 85% 4.9 mph NNE7.9 kmh NNE 11.0 mph17.7 kmh 30.19 in1022.4 mb 0.00 in0.0 mm 0.00 in0.0 mm 0.00 in0.0 mm
02:16 AM 31.3°F-0.4°C 27.3°F-2.6°C 85% 4.9 mph NNW7.9 kmh NNW 8.9 mph14.3 kmh 30.19 in1022.4 mb 0.00 in0.0 mm 0.00 in0.0 mm 0.00 in0.0 mm
02:21 AM 31.1°F-0.5°C 27.1°F-2.7°C 85% 4.9 mph N7.9 kmh N 13.0 mph20.9 kmh 30.19 in1022.4 mb 0.00 in0.0 mm 0.00 in0.0 mm 0.00 in0.0 mm
02:26 AM 30.9°F-0.6°C 27.0°F-2.8°C 85% 6.0 mph NNW9.7 kmh NNW 14.0 mph22.5 kmh 30.20 in1022.7 mb 0.00 in0.0 mm 0.00 in0.0 mm 0.00 in0.0 mm
02:31 AM 30.9°F-0.6°C 27.0°F-2.8°C 85% 6.9 mph N11.1 kmh N 15.0 mph24.1 kmh 30.20 in1022.7 mb 0.00 in0.0 mm 0.00 in0.0 mm 0.00 in0.0 mm
02:36 AM 30.7°F-0.7°C 26.8°F-2.9°C 85% 4.9 mph N7.9 kmh N 8.1 mph13.0 kmh 30.21 in1023.0 mb 0.00 in0.0 mm 0.00 in0.0 mm 0.00 in0.0 mm
02:41 AM 30.7°F-0.7°C 26.8°F-2.9°C 85% 4.9 mph NNE7.9 kmh NNE 12.0 mph19.3 kmh 30.21 in1023.0 mb 0.00 in0.0 mm 0.00 in0.0 mm 0.00 in0.0 mm
02:46 AM 30.7°F-0.7°C 26.4°F-3.1°C 84% 4.9 mph NNW7.9 kmh NNW 11.0 mph17.7 kmh 30.21 in1023.0 mb 0.00 in0.0 mm 0.00 in0.0 mm 0.00 in0.0 mm
02:51 AM 30.7°F-0.7°C 26.4°F-3.1°C 84% 4.0 mph NW6.4 kmh NW 12.1 mph19.5 kmh 30.21 in1023.0 mb 0.00 in0.0 mm 0.00 in0.0 mm 0.00 in0.0 mm
02:56 AM 30.9°F-0.6°C 26.6°F-3.0°C 84% 4.0 mph NE6.4 kmh NE 11.0 mph17.7 kmh 30.21 in1023.0 mb 0.00 in0.0 mm 0.00 in0.0 mm 0.00 in0.0 mm
03:01 AM 30.9°F-0.6°C 26.6°F-3.0°C 84% 4.9 mph N7.9 kmh N 12.1 mph19.5 kmh 30.21 in1023.0 mb 0.00 in0.0 mm 0.00 in0.0 mm 0.00 in0.0 mm
03:06 AM 30.9°F-0.6°C 26.6°F-3.0°C 84% 4.0 mph NNE6.4 kmh NNE 6.9 mph11.1 kmh 30.21 in1023.0 mb 0.00 in0.0 mm 0.00 in0.0 mm 0.00 in0.0 mm
03:11 AM 30.9°F-0.6°C 26.6°F-3.0°C 84% 2.9 mph N4.7 kmh N 6.9 mph11.1 kmh 30.21 in1023.0 mb 0.00 in0.0 mm 0.00 in0.0 mm 0.00 in0.0 mm
03:16 AM 30.9°F-0.6°C 26.4°F-3.1°C 83% 4.0 mph NW6.4 kmh NW 10.1 mph16.3 kmh 30.22 in1023.4 mb 0.00 in0.0 mm 0.00 in0.0 mm 0.00 in0.0 mm
03:21 AM 30.9°F-0.6°C 26.1°F-3.3°C 82% 4.9 mph NW7.9 kmh NW 12.1 mph19.5 kmh 30.22 in1023.4 mb 0.00 in0.0 mm 0.00 in0.0 mm 0.00 in0.0 mm
03:26 AM 30.9°F-0.6°C 26.1°F-3.3°C 82% 4.9 mph NW7.9 kmh NW 12.1 mph19.5 kmh 30.22 in1023.4 mb 0.00 in0.0 mm 0.00 in0.0 mm 0.00 in0.0 mm
03:32 AM 31.1°F-0.5°C 26.2°F-3.2°C 82% 4.9 mph N7.9 kmh N 12.1 mph19.5 kmh 30.22 in1023.4 mb 0.00 in0.0 mm 0.00 in0.0 mm 0.00 in0.0 mm
03:37 AM 31.1°F-0.5°C 26.2°F-3.2°C 82% 4.9 mph N7.9 kmh N 15.0 mph24.1 kmh 30.22 in1023.4 mb 0.00 in0.0 mm 0.00 in0.0 mm 0.00 in0.0 mm
03:42 AM 31.1°F-0.5°C 25.9°F-3.4°C 81% 4.9 mph NNE7.9 kmh NNE 15.0 mph24.1 kmh 30.23 in1023.7 mb 0.00 in0.0 mm 0.00 in0.0 mm 0.00 in0.0 mm
03:47 AM 31.1°F-0.5°C 25.9°F-3.4°C 81% 4.9 mph NNW7.9 kmh NNW 12.1 mph19.5 kmh 30.23 in1023.7 mb 0.00 in0.0 mm 0.00 in0.0 mm 0.00 in0.0 mm
03:52 AM 31.3°F-0.4°C 26.1°F-3.3°C 81% 4.9 mph N7.9 kmh N 8.9 mph14.3 kmh 30.23 in1023.7 mb 0.00 in0.0 mm 0.00 in0.0 mm 0.00 in0.0 mm
03:57 AM 31.3°F-0.4°C 26.1°F-3.3°C 81% 4.9 mph NNE7.9 kmh NNE 12.1 mph19.5 kmh 30.23 in1023.7 mb 0.00 in0.0 mm 0.00 in0.0 mm 0.00 in0.0 mm
04:02 AM 31.3°F-0.4°C 26.1°F-3.3°C 81% 4.9 mph NW7.9 kmh NW 11.0 mph17.7 kmh 30.23 in1023.7 mb 0.00 in0.0 mm 0.00 in0.0 mm 0.00 in0.0 mm
04:07 AM 31.3°F-0.4°C 26.1°F-3.3°C 81% 4.0 mph N6.4 kmh N 8.9 mph14.3 kmh 30.23 in1023.7 mb 0.00 in0.0 mm 0.00 in0.0 mm 0.00 in0.0 mm
04:12 AM 31.3°F-0.4°C 26.1°F-3.3°C 81% 4.0 mph N6.4 kmh N 13.0 mph20.9 kmh 30.23 in1023.7 mb 0.00 in0.0 mm 0.00 in0.0 mm 0.00 in0.0 mm
04:17 AM 31.3°F-0.4°C 25.9°F-3.4°C 80% 4.9 mph 7.9 kmh 12.1 mph19.5 kmh 30.23 in1023.7 mb 0.00 in0.0 mm 0.00 in0.0 mm 0.00 in0.0 mm
04:22 AM 31.3°F-0.4°C 26.1°F-3.3°C 81% 4.0 mph NNW6.4 kmh NNW 6.9 mph11.1 kmh 30.23 in1023.7 mb 0.00 in0.0 mm 0.00 in0.0 mm 0.00 in0.0 mm
04:27 AM 31.3°F-0.4°C 26.1°F-3.3°C 81% 2.9 mph NNE4.7 kmh NNE 10.1 mph16.3 kmh 30.24 in1024.0 mb 0.00 in0.0 mm 0.00 in0.0 mm 0.00 in0.0 mm
04:32 AM 31.3°F-0.4°C 25.9°F-3.4°C 80% 4.0 mph NW6.4 kmh NW 11.0 mph17.7 kmh 30.24 in1024.0 mb 0.00 in0.0 mm 0.00 in0.0 mm 0.00 in0.0 mm
04:37 AM 31.3°F-0.4°C 25.9°F-3.4°C 80% 4.0 mph N6.4 kmh N 10.1 mph16.3 kmh 30.23 in1023.7 mb 0.00 in0.0 mm 0.00 in0.0 mm 0.00 in0.0 mm
04:42 AM 31.3°F-0.4°C 25.5°F-3.6°C 79% 4.0 mph NE6.4 kmh NE 12.1 mph19.5 kmh 30.23 in1023.7 mb 0.00 in0.0 mm 0.00 in0.0 mm 0.00 in0.0 mm
04:47 AM 31.5°F-0.3°C 25.7°F-3.5°C 79% 4.0 mph NE6.4 kmh NE 13.0 mph20.9 kmh 30.23 in1023.7 mb 0.00 in0.0 mm 0.00 in0.0 mm 0.00 in0.0 mm
04:52 AM 31.5°F-0.3°C 25.7°F-3.5°C 79% 4.9 mph N7.9 kmh N 10.1 mph16.3 kmh 30.23 in1023.7 mb 0.00 in0.0 mm 0.00 in0.0 mm 0.00 in0.0 mm
04:57 AM 31.5°F-0.3°C 25.7°F-3.5°C 79% 4.0 mph NNE6.4 kmh NNE 8.1 mph13.0 kmh 30.24 in1024.0 mb 0.00 in0.0 mm 0.00 in0.0 mm 0.00 in0.0 mm
05:02 AM 31.5°F-0.3°C 25.7°F-3.5°C 79% 2.9 mph NNW4.7 kmh NNW 8.9 mph14.3 kmh 30.24 in1024.0 mb 0.00 in0.0 mm 0.00 in0.0 mm 0.00 in0.0 mm
05:07 AM 31.5°F-0.3°C 25.7°F-3.5°C 79% 4.0 mph N6.4 kmh N 8.9 mph14.3 kmh 30.24 in1024.0 mb 0.00 in0.0 mm 0.00 in0.0 mm 0.00 in0.0 mm
05:12 AM 31.6°F-0.2°C 25.5°F-3.6°C 78% 4.9 mph N7.9 kmh N 12.1 mph19.5 kmh 30.24 in1024.0 mb 0.00 in0.0 mm 0.00 in0.0 mm 0.00 in0.0 mm
05:17 AM 31.6°F-0.2°C 25.5°F-3.6°C 78% 4.9 mph N7.9 kmh N 11.0 mph17.7 kmh 30.24 in1024.0 mb 0.00 in0.0 mm 0.00 in0.0 mm 0.00 in0.0 mm
05:22 AM 31.6°F-0.2°C 25.9°F-3.4°C 79% 4.0 mph NW6.4 kmh NW 8.1 mph13.0 kmh 30.25 in1024.4 mb 0.00 in0.0 mm 0.00 in0.0 mm 0.00 in0.0 mm
05:27 AM 31.6°F-0.2°C 25.9°F-3.4°C 79% 4.0 mph NNW6.4 kmh NNW 11.0 mph17.7 kmh 30.25 in1024.4 mb 0.00 in0.0 mm 0.00 in0.0 mm 0.00 in0.0 mm
05:32 AM 31.5°F-0.3°C 25.7°F-3.5°C 79% 2.0 mph NNW3.2 kmh NNW 11.0 mph17.7 kmh 30.25 in1024.4 mb 0.00 in0.0 mm 0.00 in0.0 mm 0.00 in0.0 mm
05:37 AM 31.5°F-0.3°C 25.7°F-3.5°C 79% 2.9 mph N4.7 kmh N 8.9 mph14.3 kmh 30.25 in1024.4 mb 0.00 in0.0 mm 0.00 in0.0 mm 0.00 in0.0 mm
05:42 AM 31.5°F-0.3°C 25.7°F-3.5°C 79% 4.0 mph W6.4 kmh W 10.1 mph16.3 kmh 30.26 in1024.7 mb 0.00 in0.0 mm 0.00 in0.0 mm 0.00 in0.0 mm
05:47 AM 31.1°F-0.5°C 25.3°F-3.7°C 79% 4.9 mph NW7.9 kmh NW 10.1 mph16.3 kmh 30.26 in1024.7 mb 0.00 in0.0 mm 0.00 in0.0 mm 0.00 in0.0 mm
05:52 AM 30.7°F-0.7°C 25.0°F-3.9°C 79% 4.0 mph WNW6.4 kmh WNW 8.9 mph14.3 kmh 30.26 in1024.7 mb 0.00 in0.0 mm 0.00 in0.0 mm 0.00 in0.0 mm
05:57 AM 30.6°F-0.8°C 24.8°F-4.0°C 79% 4.0 mph N6.4 kmh N 14.1 mph22.7 kmh 30.26 in1024.7 mb 0.00 in0.0 mm 0.00 in0.0 mm 0.00 in0.0 mm
06:02 AM 30.4°F-0.9°C 24.6°F-4.1°C 79% 4.0 mph N6.4 kmh N 14.1 mph22.7 kmh 30.26 in1024.7 mb 0.00 in0.0 mm 0.00 in0.0 mm 0.00 in0.0 mm
06:07 AM 30.2°F-1.0°C 24.4°F-4.2°C 79% 4.9 mph NE7.9 kmh NE 11.0 mph17.7 kmh 30.27 in1025.1 mb 0.00 in0.0 mm 0.00 in0.0 mm 0.00 in0.0 mm
06:12 AM 30.0°F-1.1°C 24.6°F-4.1°C 80% 4.9 mph N7.9 kmh N 10.1 mph16.3 kmh 30.27 in1025.1 mb 0.00 in0.0 mm 0.00 in0.0 mm 0.00 in0.0 mm
06:17 AM 30.0°F-1.1°C 24.6°F-4.1°C 80% 4.0 mph NNE6.4 kmh NNE 8.1 mph13.0 kmh 30.27 in1025.1 mb 0.00 in0.0 mm 0.00 in0.0 mm 0.00 in0.0 mm
06:22 AM 30.0°F-1.1°C 25.0°F-3.9°C 81% 2.9 mph N4.7 kmh N 9.0 mph14.5 kmh 30.27 in1025.1 mb 0.00 in0.0 mm 0.00 in0.0 mm 0.00 in0.0 mm
06:27 AM 29.8°F-1.2°C 24.8°F-4.0°C 81% 2.9 mph NNW4.7 kmh NNW 8.9 mph14.3 kmh 30.28 in1025.4 mb 0.00 in0.0 mm 0.00 in0.0 mm 0.00 in0.0 mm
06:32 AM 29.7°F-1.3°C 24.3°F-4.3°C 80% 2.9 mph N4.7 kmh N 8.9 mph14.3 kmh 30.28 in1025.4 mb 0.00 in0.0 mm 0.00 in0.0 mm 0.00 in0.0 mm
06:37 AM 29.3°F-1.5°C 23.9°F-4.5°C 80% 4.0 mph NNE6.4 kmh NNE 10.1 mph16.3 kmh 30.28 in1025.4 mb 0.00 in0.0 mm 0.00 in0.0 mm 0.00 in0.0 mm
06:42 AM 28.9°F-1.7°C 23.5°F-4.7°C 80% 4.9 mph N7.9 kmh N 10.1 mph16.3 kmh 30.29 in1025.7 mb 0.00 in0.0 mm 0.00 in0.0 mm 0.00 in0.0 mm
06:47 AM 28.9°F-1.7°C 23.9°F-4.5°C 81% 4.0 mph NNE6.4 kmh NNE 8.1 mph13.0 kmh 30.29 in1025.7 mb 0.00 in0.0 mm 0.00 in0.0 mm 0.00 in0.0 mm
06:52 AM 28.9°F-1.7°C 24.1°F-4.4°C 82% 2.9 mph NNE4.7 kmh NNE 6.0 mph9.7 kmh 30.29 in1025.7 mb 0.00 in0.0 mm 0.00 in0.0 mm 0.00 in0.0 mm
06:57 AM 28.8°F-1.8°C 24.3°F-4.3°C 83% 2.0 mph NNW3.2 kmh NNW 8.1 mph13.0 kmh 30.29 in1025.7 mb 0.00 in0.0 mm 0.00 in0.0 mm 0.00 in0.0 mm
07:02 AM 28.6°F-1.9°C 24.1°F-4.4°C 83% 2.9 mph NW4.7 kmh NW 8.1 mph13.0 kmh 30.29 in1025.7 mb 0.00 in0.0 mm 0.00 in0.0 mm 0.00 in0.0 mm
07:07 AM 28.4°F-2.0°C 23.9°F-4.5°C 83% 4.0 mph NNW6.4 kmh NNW 8.1 mph13.0 kmh 30.30 in1026.1 mb 0.00 in0.0 mm 0.00 in0.0 mm 0.00 in0.0 mm
07:12 AM 28.2°F-2.1°C 23.7°F-4.6°C 83% 2.9 mph N4.7 kmh N 6.0 mph9.7 kmh 30.30 in1026.1 mb 0.00 in0.0 mm 0.00 in0.0 mm 0.00 in0.0 mm
07:17 AM 28.2°F-2.1°C 23.7°F-4.6°C 83% 2.9 mph N4.7 kmh N 8.9 mph14.3 kmh 30.30 in1026.1 mb 0.00 in0.0 mm 0.00 in0.0 mm 0.00 in0.0 mm
07:22 AM 28.0°F-2.2°C 23.5°F-4.7°C 83% 4.0 mph N6.4 kmh N 12.1 mph19.5 kmh 30.30 in1026.1 mb 0.00 in0.0 mm 0.00 in0.0 mm 0.00 in0.0 mm
07:27 AM 28.0°F-2.2°C 23.5°F-4.7°C 83% 2.9 mph N4.7 kmh N 6.9 mph11.1 kmh 30.30 in1026.1 mb 0.00 in0.0 mm 0.00 in0.0 mm 0.00 in0.0 mm
07:32 AM 28.0°F-2.2°C 23.5°F-4.7°C 83% 2.9 mph NNW4.7 kmh NNW 4.0 mph6.4 kmh 30.30 in1026.1 mb 0.00 in0.0 mm 0.00 in0.0 mm 0.00 in0.0 mm
07:37 AM 28.0°F-2.2°C 23.5°F-4.7°C 83% 2.0 mph NNE3.2 kmh NNE 4.9 mph7.9 kmh 30.31 in1026.4 mb 0.00 in0.0 mm 0.00 in0.0 mm 0.00 in0.0 mm
07:42 AM 28.0°F-2.2°C 23.5°F-4.7°C 83% 0.9 mph NW1.4 kmh NW 4.0 mph6.4 kmh 30.31 in1026.4 mb 0.00 in0.0 mm 0.00 in0.0 mm 0.00 in0.0 mm
07:47 AM 27.9°F-2.3°C 23.4°F-4.8°C 83% 2.0 mph N3.2 kmh N 8.9 mph14.3 kmh 30.31 in1026.4 mb 0.00 in0.0 mm 0.00 in0.0 mm 0.00 in0.0 mm
07:52 AM 27.7°F-2.4°C 23.2°F-4.9°C 83% 2.0 mph NW3.2 kmh NW 2.9 mph4.7 kmh 30.31 in1026.4 mb 0.00 in0.0 mm 0.00 in0.0 mm 0.00 in0.0 mm
07:57 AM 27.3°F-2.6°C 22.8°F-5.1°C 83% 2.0 mph N3.2 kmh N 4.0 mph6.4 kmh 30.31 in1026.4 mb 0.00 in0.0 mm 0.00 in0.0 mm 0.00 in0.0 mm
08:02 AM 27.3°F-2.6°C 23.2°F-4.9°C 84% 0.9 mph NW1.4 kmh NW 2.0 mph3.2 kmh 30.31 in1026.4 mb 0.00 in0.0 mm 0.00 in0.0 mm 0.00 in0.0 mm
08:07 AM 27.3°F-2.6°C 23.4°F-4.8°C 85% 0.9 mph NNW1.4 kmh NNW 4.0 mph6.4 kmh 30.31 in1026.4 mb 0.00 in0.0 mm 0.00 in0.0 mm 0.00 in0.0 mm
08:12 AM 27.3°F-2.6°C 23.4°F-4.8°C 85% 0.9 mph NNE1.4 kmh NNE 4.0 mph6.4 kmh 30.31 in1026.4 mb 0.00 in0.0 mm 0.00 in0.0 mm 0.00 in0.0 mm
08:17 AM 27.3°F-2.6°C 23.2°F-4.9°C 84% 0.9 mph NW1.4 kmh NW 6.0 mph9.7 kmh 30.32 in1026.8 mb 0.00 in0.0 mm 0.00 in0.0 mm 0.00 in0.0 mm
08:22 AM 27.3°F-2.6°C 23.2°F-4.9°C 84% 2.0 mph N3.2 kmh N 6.0 mph9.7 kmh 30.32 in1026.8 mb 0.00 in0.0 mm 0.00 in0.0 mm 0.00 in0.0 mm
08:27 AM 27.1°F-2.7°C 23.0°F-5.0°C 84% 2.0 mph N3.2 kmh N 4.0 mph6.4 kmh 30.32 in1026.8 mb 0.00 in0.0 mm 0.00 in0.0 mm 0.00 in0.0 mm
08:32 AM 27.3°F-2.6°C 23.4°F-4.8°C 85% 0.9 mph N1.4 kmh N 4.9 mph7.9 kmh 30.32 in1026.8 mb 0.00 in0.0 mm 0.00 in0.0 mm 0.00 in0.0 mm
08:37 AM 27.7°F-2.4°C 23.7°F-4.6°C 85% 0.9 mph N1.4 kmh N 4.0 mph6.4 kmh 30.32 in1026.8 mb 0.00 in0.0 mm 0.00 in0.0 mm 0.00 in0.0 mm
08:42 AM 27.7°F-2.4°C 23.5°F-4.7°C 84% 0.9 mph NW1.4 kmh NW 6.0 mph9.7 kmh 30.32 in1026.8 mb 0.00 in0.0 mm 0.00 in0.0 mm 0.00 in0.0 mm
08:47 AM 27.7°F-2.4°C 23.5°F-4.7°C 84% 2.0 mph NNW3.2 kmh NNW 6.9 mph11.1 kmh 30.32 in1026.8 mb 0.00 in0.0 mm 0.00 in0.0 mm 0.00 in0.0 mm
08:52 AM 27.5°F-2.5°C 23.4°F-4.8°C 84% 4.0 mph N6.4 kmh N 9.0 mph14.5 kmh 30.33 in1027.1 mb 0.00 in0.0 mm 0.00 in0.0 mm 0.00 in0.0 mm
08:57 AM 27.7°F-2.4°C 23.7°F-4.6°C 85% 2.9 mph NNW4.7 kmh NNW 4.9 mph7.9 kmh 30.33 in1027.1 mb 0.00 in0.0 mm 0.00 in0.0 mm 0.00 in0.0 mm
09:02 AM 27.7°F-2.4°C 23.5°F-4.7°C 84% 2.0 mph NNW3.2 kmh NNW 6.0 mph9.7 kmh 30.33 in1027.1 mb 0.00 in0.0 mm 0.00 in0.0 mm 0.00 in0.0 mm
09:07 AM 27.7°F-2.4°C 23.5°F-4.7°C 84% 2.0 mph NNW3.2 kmh NNW 4.9 mph7.9 kmh 30.33 in1027.1 mb 0.00 in0.0 mm 0.00 in0.0 mm 0.00 in0.0 mm
09:12 AM 27.7°F-2.4°C 23.5°F-4.7°C 84% 2.0 mph N3.2 kmh N 8.1 mph13.0 kmh 30.33 in1027.1 mb 0.00 in0.0 mm 0.00 in0.0 mm 0.00 in0.0 mm
09:17 AM 27.7°F-2.4°C 23.5°F-4.7°C 84% 2.0 mph NNE3.2 kmh NNE 4.0 mph6.4 kmh 30.34 in1027.4 mb 0.00 in0.0 mm 0.00 in0.0 mm 0.00 in0.0 mm
09:22 AM 27.5°F-2.5°C 23.0°F-5.0°C 83% 2.0 mph NW3.2 kmh NW 8.1 mph13.0 kmh 30.34 in1027.4 mb 0.00 in0.0 mm 0.00 in0.0 mm 0.00 in0.0 mm
09:27 AM 27.7°F-2.4°C 23.5°F-4.7°C 84% 2.0 mph N3.2 kmh N 6.0 mph9.7 kmh 30.34 in1027.4 mb 0.00 in0.0 mm 0.00 in0.0 mm 0.00 in0.0 mm
09:32 AM 27.7°F-2.4°C 23.5°F-4.7°C 84% 2.0 mph N3.2 kmh N 4.9 mph7.9 kmh 30.34 in1027.4 mb 0.00 in0.0 mm 0.00 in0.0 mm 0.00 in0.0 mm
09:37 AM 27.9°F-2.3°C 23.7°F-4.6°C 84% 2.0 mph NNW3.2 kmh NNW 6.0 mph9.7 kmh 30.35 in1027.8 mb 0.00 in0.0 mm 0.00 in0.0 mm 0.00 in0.0 mm
09:42 AM 28.0°F-2.2°C 23.9°F-4.5°C 84% 0.9 mph N1.4 kmh N 4.9 mph7.9 kmh 30.36 in1028.1 mb 0.00 in0.0 mm 0.00 in0.0 mm 0.00 in0.0 mm
09:47 AM 28.0°F-2.2°C 23.5°F-4.7°C 83% 2.0 mph NW3.2 kmh NW 6.0 mph9.7 kmh 30.36 in1028.1 mb 0.00 in0.0 mm 0.00 in0.0 mm 0.00 in0.0 mm
09:53 AM 27.7°F-2.4°C 23.5°F-4.7°C 84% 2.0 mph N3.2 kmh N 7.0 mph11.3 kmh 30.36 in1028.1 mb 0.00 in0.0 mm 0.00 in0.0 mm 0.00 in0.0 mm
09:58 AM 27.3°F-2.6°C 23.2°F-4.9°C 84% 2.9 mph N4.7 kmh N 6.9 mph11.1 kmh 30.36 in1028.1 mb 0.00 in0.0 mm 0.00 in0.0 mm 0.00 in0.0 mm
10:03 AM 27.1°F-2.7°C 22.6°F-5.2°C 83% 2.9 mph N4.7 kmh N 6.9 mph11.1 kmh 30.36 in1028.1 mb 0.00 in0.0 mm 0.00 in0.0 mm 0.00 in0.0 mm
10:08 AM 27.0°F-2.8°C 22.8°F-5.1°C 84% 2.0 mph NNE3.2 kmh NNE 6.9 mph11.1 kmh 30.36 in1028.1 mb 0.00 in0.0 mm 0.00 in0.0 mm 0.00 in0.0 mm
10:13 AM 27.0°F-2.8°C 22.5°F-5.3°C 83% 2.0 mph N3.2 kmh N 4.9 mph7.9 kmh 30.37 in1028.4 mb 0.00 in0.0 mm 0.00 in0.0 mm 0.00 in0.0 mm
10:18 AM 27.1°F-2.7°C 22.6°F-5.2°C 83% 2.0 mph N3.2 kmh N 4.0 mph6.4 kmh 30.37 in1028.4 mb 0.00 in0.0 mm 0.00 in0.0 mm 0.00 in0.0 mm
10:23 AM 27.3°F-2.6°C 23.2°F-4.9°C 84% 2.0 mph NE3.2 kmh NE 4.0 mph6.4 kmh 30.37 in1028.4 mb 0.00 in0.0 mm 0.00 in0.0 mm 0.00 in0.0 mm
10:28 AM 27.3°F-2.6°C 23.2°F-4.9°C 84% 0.9 mph N1.4 kmh N 5.0 mph8.0 kmh 30.37 in1028.4 mb 0.00 in0.0 mm 0.00 in0.0 mm 0.00 in0.0 mm
10:33 AM 27.3°F-2.6°C 22.8°F-5.1°C 83% 0.9 mph NNW1.4 kmh NNW 6.0 mph9.7 kmh 30.38 in1028.8 mb 0.00 in0.0 mm 0.00 in0.0 mm 0.00 in0.0 mm
10:38 AM 27.3°F-2.6°C 22.8°F-5.1°C 83% 2.0 mph NNW3.2 kmh NNW 6.0 mph9.7 kmh 30.38 in1028.8 mb 0.00 in0.0 mm 0.00 in0.0 mm 0.00 in0.0 mm
10:43 AM 27.1°F-2.7°C 22.5°F-5.3°C 82% 2.0 mph NNE3.2 kmh NNE 8.1 mph13.0 kmh 30.38 in1028.8 mb 0.00 in0.0 mm 0.00 in0.0 mm 0.00 in0.0 mm
10:48 AM 27.1°F-2.7°C 22.5°F-5.3°C 82% 0.9 mph W1.4 kmh W 2.9 mph4.7 kmh 30.38 in1028.8 mb 0.00 in0.0 mm 0.00 in0.0 mm 0.00 in0.0 mm
10:53 AM 27.1°F-2.7°C 22.5°F-5.3°C 82% 0.9 mph NW1.4 kmh NW 4.0 mph6.4 kmh 30.38 in1028.8 mb 0.00 in0.0 mm 0.00 in0.0 mm 0.00 in0.0 mm
10:58 AM 27.3°F-2.6°C 22.6°F-5.2°C 82% 0.9 mph NNW1.4 kmh NNW 4.9 mph7.9 kmh 30.38 in1028.8 mb 0.00 in0.0 mm 0.00 in0.0 mm 0.00 in0.0 mm
11:03 AM 27.7°F-2.4°C 22.6°F-5.2°C 81% 0.9 mph NE1.4 kmh NE 2.9 mph4.7 kmh 30.38 in1028.8 mb 0.00 in0.0 mm 0.00 in0.0 mm 0.00 in0.0 mm
11:08 AM 28.2°F-2.1°C 23.2°F-4.9°C 81% 0.9 mph N1.4 kmh N 2.9 mph4.7 kmh 30.38 in1028.8 mb 0.00 in0.0 mm 0.00 in0.0 mm 0.00 in0.0 mm
11:13 AM 28.6°F-1.9°C 23.5°F-4.7°C 81% 0.9 mph W1.4 kmh W 5.0 mph8.0 kmh 30.38 in1028.8 mb 0.00 in0.0 mm 0.00 in0.0 mm 0.00 in0.0 mm
11:18 AM 28.6°F-1.9°C 23.2°F-4.9°C 80% 0.9 mph NW1.4 kmh NW 4.0 mph6.4 kmh 30.38 in1028.8 mb 0.00 in0.0 mm 0.00 in0.0 mm 0.00 in0.0 mm
11:23 AM 28.2°F-2.1°C 23.2°F-4.9°C 81% 2.0 mph WNW3.2 kmh WNW 4.9 mph7.9 kmh 30.38 in1028.8 mb 0.00 in0.0 mm 0.00 in0.0 mm 0.00 in0.0 mm
11:28 AM 28.0°F-2.2°C 23.2°F-4.9°C 82% 0.9 mph W1.4 kmh W 4.0 mph6.4 kmh 30.38 in1028.8 mb 0.00 in0.0 mm 0.00 in0.0 mm 0.00 in0.0 mm
11:33 AM 28.0°F-2.2°C 23.2°F-4.9°C 82% 0.9 mph NW1.4 kmh NW 6.0 mph9.7 kmh 30.38 in1028.8 mb 0.00 in0.0 mm 0.00 in0.0 mm 0.00 in0.0 mm
11:38 AM 27.9°F-2.3°C 23.0°F-5.0°C 82% 0.9 mph WNW1.4 kmh WNW 4.9 mph7.9 kmh 30.38 in1028.8 mb 0.00 in0.0 mm 0.00 in0.0 mm 0.00 in0.0 mm
11:43 AM 27.9°F-2.3°C 23.0°F-5.0°C 82% 0.9 mph WNW1.4 kmh WNW 2.9 mph4.7 kmh 30.38 in1028.8 mb 0.00 in0.0 mm 0.00 in0.0 mm 0.00 in0.0 mm
11:48 AM 27.7°F-2.4°C 22.8°F-5.1°C 82% 0.9 mph WSW1.4 kmh WSW 4.0 mph6.4 kmh 30.38 in1028.8 mb 0.00 in0.0 mm 0.00 in0.0 mm 0.00 in0.0 mm
11:53 AM 27.7°F-2.4°C 22.6°F-5.2°C 81% 0.9 mph W1.4 kmh W 2.9 mph4.7 kmh 30.37 in1028.4 mb 0.00 in0.0 mm 0.00 in0.0 mm 0.00 in0.0 mm
11:58 AM 27.5°F-2.5°C 22.5°F-5.3°C 81% 0.9 mph NW1.4 kmh NW 4.0 mph6.4 kmh 30.37 in1028.4 mb 0.00 in0.0 mm 0.00 in0.0 mm 0.00 in0.0 mm
12:03 PM 27.0°F-2.8°C 21.9°F-5.6°C 81% 2.0 mph N3.2 kmh N 4.0 mph6.4 kmh 30.37 in1028.4 mb 0.00 in0.0 mm 0.00 in0.0 mm 0.00 in0.0 mm
12:08 PM 27.0°F-2.8°C 22.3°F-5.4°C 82% 2.0 mph NW3.2 kmh NW 4.0 mph6.4 kmh 30.37 in1028.4 mb 0.00 in0.0 mm 0.00 in0.0 mm 0.00 in0.0 mm
12:13 PM 26.8°F-2.9°C 22.1°F-5.5°C 82% 2.0 mph NW3.2 kmh NW 4.0 mph6.4 kmh 30.36 in1028.1 mb 0.00 in0.0 mm 0.00 in0.0 mm 0.00 in0.0 mm
12:18 PM 26.6°F-3.0°C 21.9°F-5.6°C 82% 2.0 mph NW3.2 kmh NW 5.0 mph8.0 kmh 30.36 in1028.1 mb 0.00 in0.0 mm 0.00 in0.0 mm 0.00 in0.0 mm
12:23 PM 26.6°F-3.0°C 21.9°F-5.6°C 82% 2.0 mph NW3.2 kmh NW 4.0 mph6.4 kmh 30.36 in1028.1 mb 0.00 in0.0 mm 0.00 in0.0 mm 0.00 in0.0 mm
12:28 PM 26.6°F-3.0°C 21.6°F-5.8°C 81% 0.9 mph NW1.4 kmh NW 4.0 mph6.4 kmh 30.36 in1028.1 mb 0.00 in0.0 mm 0.00 in0.0 mm 0.00 in0.0 mm
12:33 PM 26.6°F-3.0°C 21.6°F-5.8°C 81% 0.9 mph N1.4 kmh N 8.1 mph13.0 kmh 30.36 in1028.1 mb 0.00 in0.0 mm 0.00 in0.0 mm 0.00 in0.0 mm
12:38 PM 26.2°F-3.2°C 21.6°F-5.8°C 82% 2.0 mph N3.2 kmh N 8.1 mph13.0 kmh 30.37 in1028.4 mb 0.00 in0.0 mm 0.00 in0.0 mm 0.00 in0.0 mm
12:43 PM 26.4°F-3.1°C 21.4°F-5.9°C 81% 2.0 mph NNW3.2 kmh NNW 4.9 mph7.9 kmh 30.37 in1028.4 mb 0.00 in0.0 mm 0.00 in0.0 mm 0.00 in0.0 mm
12:48 PM 26.4°F-3.1°C 21.4°F-5.9°C 81% 0.9 mph W1.4 kmh W 2.9 mph4.7 kmh 30.36 in1028.1 mb 0.00 in0.0 mm 0.00 in0.0 mm 0.00 in0.0 mm
12:53 PM 26.4°F-3.1°C 21.0°F-6.1°C 80% 0.9 mph NW1.4 kmh NW 4.0 mph6.4 kmh 30.36 in1028.1 mb 0.00 in0.0 mm 0.00 in0.0 mm 0.00 in0.0 mm
12:58 PM 26.6°F-3.0°C 21.6°F-5.8°C 81% 0.9 mph N1.4 kmh N 0.9 mph1.4 kmh 30.36 in1028.1 mb 0.00 in0.0 mm 0.00 in0.0 mm 0.00 in0.0 mm
01:03 PM 27.0°F-2.8°C 21.6°F-5.8°C 80% Calm Calm 0.9 mph1.4 kmh 30.36 in1028.1 mb 0.00 in0.0 mm 0.00 in0.0 mm 0.00 in0.0 mm
01:08 PM 27.0°F-2.8°C 21.4°F-5.9°C 79% 0.9 mph WNW1.4 kmh WNW 4.0 mph6.4 kmh 30.36 in1028.1 mb 0.00 in0.0 mm 0.00 in0.0 mm 0.00 in0.0 mm
01:13 PM 26.6°F-3.0°C 21.0°F-6.1°C 79% 0.9 mph NW1.4 kmh NW 2.9 mph4.7 kmh 30.36 in1028.1 mb 0.00 in0.0 mm 0.00 in0.0 mm 0.00 in0.0 mm
01:18 PM 26.4°F-3.1°C 20.8°F-6.2°C 79% Calm Calm 2.0 mph3.2 kmh 30.36 in1028.1 mb 0.00 in0.0 mm 0.00 in0.0 mm 0.00 in0.0 mm
01:23 PM 26.8°F-2.9°C 21.4°F-5.9°C 80% Calm Calm 2.0 mph3.2 kmh 30.36 in1028.1 mb 0.00 in0.0 mm 0.00 in0.0 mm 0.00 in0.0 mm
01:28 PM 27.1°F-2.7°C 21.6°F-5.8°C 79% 0.9 mph NNW1.4 kmh NNW 4.0 mph6.4 kmh 30.36 in1028.1 mb 0.00 in0.0 mm 0.00 in0.0 mm 0.00 in0.0 mm
01:33 PM 27.3°F-2.6°C 21.7°F-5.7°C 79% 0.9 mph N1.4 kmh N 4.0 mph6.4 kmh 30.36 in1028.1 mb 0.00 in0.0 mm 0.00 in0.0 mm 0.00 in0.0 mm
01:38 PM 27.5°F-2.5°C 21.6°F-5.8°C 78% 0.9 mph NW1.4 kmh NW 2.9 mph4.7 kmh 30.35 in1027.8 mb 0.00 in0.0 mm 0.00 in0.0 mm 0.00 in0.0 mm
01:43 PM 27.7°F-2.4°C 21.4°F-5.9°C 77% 0.9 mph NW1.4 kmh NW 4.0 mph6.4 kmh 30.35 in1027.8 mb 0.00 in0.0 mm 0.00 in0.0 mm 0.00 in0.0 mm
01:48 PM 27.9°F-2.3°C 21.6°F-5.8°C 77% 0.9 mph W1.4 kmh W 5.0 mph8.0 kmh 30.35 in1027.8 mb 0.00 in0.0 mm 0.00 in0.0 mm 0.00 in0.0 mm
01:53 PM 28.0°F-2.2°C 21.4°F-5.9°C 76% 2.0 mph WSW3.2 kmh WSW 4.9 mph7.9 kmh 30.35 in1027.8 mb 0.00 in0.0 mm 0.00 in0.0 mm 0.00 in0.0 mm
01:58 PM 28.6°F-1.9°C 21.7°F-5.7°C 75% 2.0 mph WSW3.2 kmh WSW 4.9 mph7.9 kmh 30.35 in1027.8 mb 0.00 in0.0 mm 0.00 in0.0 mm 0.00 in0.0 mm
02:03 PM 28.8°F-1.8°C 21.9°F-5.6°C 75% 0.9 mph NW1.4 kmh NW 4.9 mph7.9 kmh 30.35 in1027.8 mb 0.00 in0.0 mm 0.00 in0.0 mm 0.00 in0.0 mm
02:08 PM 28.9°F-1.7°C 21.7°F-5.7°C 74% 0.9 mph NNW1.4 kmh NNW 4.0 mph6.4 kmh 30.35 in1027.8 mb 0.00 in0.0 mm 0.00 in0.0 mm 0.00 in0.0 mm
02:13 PM 28.9°F-1.7°C 22.1°F-5.5°C 75% 0.9 mph WNW1.4 kmh WNW 2.9 mph4.7 kmh 30.35 in1027.8 mb 0.00 in0.0 mm 0.00 in0.0 mm 0.00 in0.0 mm
02:18 PM 29.5°F-1.4°C 22.3°F-5.4°C 74% 0.9 mph W1.4 kmh W 2.0 mph3.2 kmh 30.35 in1027.8 mb 0.00 in0.0 mm 0.00 in0.0 mm 0.00 in0.0 mm
02:23 PM 29.5°F-1.4°C 21.9°F-5.6°C 73% 0.9 mph NW1.4 kmh NW 4.9 mph7.9 kmh 30.35 in1027.8 mb 0.00 in0.0 mm 0.00 in0.0 mm 0.00 in0.0 mm
02:28 PM 29.5°F-1.4°C 21.9°F-5.6°C 73% 0.9 mph NNW1.4 kmh NNW 2.0 mph3.2 kmh 30.34 in1027.4 mb 0.00 in0.0 mm 0.00 in0.0 mm 0.00 in0.0 mm
02:33 PM 29.7°F-1.3°C 22.1°F-5.5°C 73% Calm Calm 2.9 mph4.7 kmh 30.34 in1027.4 mb 0.00 in0.0 mm 0.00 in0.0 mm 0.00 in0.0 mm
02:38 PM 29.7°F-1.3°C 22.1°F-5.5°C 73% 0.9 mph NNW1.4 kmh NNW 4.0 mph6.4 kmh 30.34 in1027.4 mb 0.00 in0.0 mm 0.00 in0.0 mm 0.00 in0.0 mm
02:43 PM 29.7°F-1.3°C 21.7°F-5.7°C 72% 0.9 mph N1.4 kmh N 2.9 mph4.7 kmh 30.34 in1027.4 mb 0.00 in0.0 mm 0.00 in0.0 mm 0.00 in0.0 mm
02:48 PM 29.7°F-1.3°C 21.7°F-5.7°C 72% 0.9 mph N1.4 kmh N 4.0 mph6.4 kmh 30.34 in1027.4 mb 0.00 in0.0 mm 0.00 in0.0 mm 0.00 in0.0 mm
02:53 PM 29.5°F-1.4°C 21.9°F-5.6°C 73% 0.9 mph WNW1.4 kmh WNW 5.0 mph8.0 kmh 30.34 in1027.4 mb 0.00 in0.0 mm 0.00 in0.0 mm 0.00 in0.0 mm
02:58 PM 29.7°F-1.3°C 22.1°F-5.5°C 73% 0.9 mph WNW1.4 kmh WNW 4.0 mph6.4 kmh 30.34 in1027.4 mb 0.00 in0.0 mm 0.00 in0.0 mm 0.00 in0.0 mm
03:03 PM 29.8°F-1.2°C 22.3°F-5.4°C 73% 0.9 mph NW1.4 kmh NW 2.0 mph3.2 kmh 30.34 in1027.4 mb 0.00 in0.0 mm 0.00 in0.0 mm 0.00 in0.0 mm
03:08 PM 29.8°F-1.2°C 21.9°F-5.6°C 72% 0.9 mph NNW1.4 kmh NNW 4.0 mph6.4 kmh 30.34 in1027.4 mb 0.00 in0.0 mm 0.00 in0.0 mm 0.00 in0.0 mm
03:13 PM 29.8°F-1.2°C 21.9°F-5.6°C 72% 0.9 mph NW1.4 kmh NW 6.0 mph9.7 kmh 30.34 in1027.4 mb 0.00 in0.0 mm 0.00 in0.0 mm 0.00 in0.0 mm
03:18 PM 29.8°F-1.2°C 21.9°F-5.6°C 72% 0.9 mph NE1.4 kmh NE 2.9 mph4.7 kmh 30.34 in1027.4 mb 0.00 in0.0 mm 0.00 in0.0 mm 0.00 in0.0 mm
03:23 PM 29.8°F-1.2°C 21.9°F-5.6°C 72% 0.9 mph NNW1.4 kmh NNW 2.9 mph4.7 kmh 30.35 in1027.8 mb 0.00 in0.0 mm 0.00 in0.0 mm 0.00 in0.0 mm
03:28 PM 29.7°F-1.3°C 21.4°F-5.9°C 71% Calm Calm 2.9 mph4.7 kmh 30.34 in1027.4 mb 0.00 in0.0 mm 0.00 in0.0 mm 0.00 in0.0 mm
03:33 PM 29.5°F-1.4°C 21.2°F-6.0°C 71% Calm Calm 0.9 mph1.4 kmh 30.34 in1027.4 mb 0.00 in0.0 mm 0.00 in0.0 mm 0.00 in0.0 mm
03:38 PM 29.5°F-1.4°C 21.6°F-5.8°C 72% Calm Calm 0.9 mph1.4 kmh 30.34 in1027.4 mb 0.00 in0.0 mm 0.00 in0.0 mm 0.00 in0.0 mm
03:43 PM 29.5°F-1.4°C 21.6°F-5.8°C 72% Calm Calm 3.0 mph4.8 kmh 30.34 in1027.4 mb 0.00 in0.0 mm 0.00 in0.0 mm 0.00 in0.0 mm
03:48 PM 29.5°F-1.4°C 21.6°F-5.8°C 72% Calm Calm 0.9 mph1.4 kmh 30.34 in1027.4 mb 0.00 in0.0 mm 0.00 in0.0 mm 0.00 in0.0 mm
03:53 PM 29.3°F-1.5°C 21.7°F-5.7°C 73% Calm Calm 0.9 mph1.4 kmh 30.34 in1027.4 mb 0.00 in0.0 mm 0.00 in0.0 mm 0.00 in0.0 mm
03:58 PM 29.3°F-1.5°C 21.7°F-5.7°C 73% Calm Calm 0.9 mph1.4 kmh 30.35 in1027.8 mb 0.00 in0.0 mm 0.00 in0.0 mm 0.00 in0.0 mm
04:03 PM 29.1°F-1.6°C 21.6°F-5.8°C 73% Calm Calm 0.9 mph1.4 kmh 30.35 in1027.8 mb 0.00 in0.0 mm 0.00 in0.0 mm 0.00 in0.0 mm
04:08 PM 29.1°F-1.6°C 21.9°F-5.6°C 74% Calm Calm 0.9 mph1.4 kmh 30.35 in1027.8 mb 0.00 in0.0 mm 0.00 in0.0 mm 0.00 in0.0 mm
04:13 PM 29.1°F-1.6°C 21.9°F-5.6°C 74% Calm Calm 0.9 mph1.4 kmh 30.35 in1027.8 mb 0.00 in0.0 mm 0.00 in0.0 mm 0.00 in0.0 mm
04:18 PM 28.9°F-1.7°C 21.7°F-5.7°C 74% Calm Calm -- 30.35 in1027.8 mb 0.00 in0.0 mm 0.00 in0.0 mm 0.00 in0.0 mm
04:23 PM 28.8°F-1.8°C 21.6°F-5.8°C 74% Calm Calm -- 30.35 in1027.8 mb 0.00 in0.0 mm 0.00 in0.0 mm 0.00 in0.0 mm
04:28 PM 28.8°F-1.8°C 21.9°F-5.6°C 75% Calm Calm -- 30.35 in1027.8 mb 0.00 in0.0 mm 0.00 in0.0 mm 0.00 in0.0 mm
04:33 PM 28.6°F-1.9°C 21.9°F-5.6°C 76% Calm Calm -- 30.35 in1027.8 mb 0.00 in0.0 mm 0.00 in0.0 mm 0.00 in0.0 mm
04:38 PM 28.4°F-2.0°C 21.7°F-5.7°C 76% Calm Calm -- 30.35 in1027.8 mb 0.00 in0.0 mm 0.00 in0.0 mm 0.00 in0.0 mm
04:43 PM 28.2°F-2.1°C 21.6°F-5.8°C 76% Calm Calm -- 30.35 in1027.8 mb 0.00 in0.0 mm 0.00 in0.0 mm 0.00 in0.0 mm
04:48 PM 28.0°F-2.2°C 21.7°F-5.7°C 77% Calm Calm -- 30.35 in1027.8 mb 0.00 in0.0 mm 0.00 in0.0 mm 0.00 in0.0 mm
04:53 PM 28.0°F-2.2°C 21.7°F-5.7°C 77% Calm Calm -- 30.35 in1027.8 mb 0.00 in0.0 mm 0.00 in0.0 mm 0.00 in0.0 mm
04:58 PM 27.9°F-2.3°C 21.6°F-5.8°C 77% Calm Calm -- 30.35 in1027.8 mb 0.00 in0.0 mm 0.00 in0.0 mm 0.00 in0.0 mm
05:03 PM 27.7°F-2.4°C 21.7°F-5.7°C 78% Calm Calm -- 30.35 in1027.8 mb 0.00 in0.0 mm 0.00 in0.0 mm 0.00 in0.0 mm
05:08 PM 27.5°F-2.5°C 21.6°F-5.8°C 78% Calm Calm -- 30.35 in1027.8 mb 0.00 in0.0 mm 0.00 in0.0 mm 0.00 in0.0 mm
05:13 PM 27.1°F-2.7°C 21.2°F-6.0°C 78% Calm Calm -- 30.35 in1027.8 mb 0.00 in0.0 mm 0.00 in0.0 mm 0.00 in0.0 mm
05:18 PM 27.1°F-2.7°C 21.6°F-5.8°C 79% Calm Calm -- 30.35 in1027.8 mb 0.00 in0.0 mm 0.00 in0.0 mm 0.00 in0.0 mm
05:24 PM 27.0°F-2.8°C 21.4°F-5.9°C 79% Calm Calm -- 30.35 in1027.8 mb 0.00 in0.0 mm 0.00 in0.0 mm 0.00 in0.0 mm
05:29 PM 26.6°F-3.0°C 21.2°F-6.0°C 80% Calm Calm -- 30.35 in1027.8 mb 0.00 in0.0 mm 0.00 in0.0 mm 0.00 in0.0 mm
05:34 PM 26.2°F-3.2°C 20.8°F-6.2°C 80% Calm Calm -- 30.35 in1027.8 mb 0.00 in0.0 mm 0.00 in0.0 mm 0.00 in0.0 mm
05:39 PM 26.1°F-3.3°C 20.7°F-6.3°C 80% Calm Calm -- 30.35 in1027.8 mb 0.00 in0.0 mm 0.00 in0.0 mm 0.00 in0.0 mm
05:44 PM 25.9°F-3.4°C 20.8°F-6.2°C 81% Calm Calm -- 30.35 in1027.8 mb 0.00 in0.0 mm 0.00 in0.0 mm 0.00 in0.0 mm
05:49 PM 25.7°F-3.5°C 20.7°F-6.3°C 81% Calm Calm -- 30.34 in1027.4 mb 0.00 in0.0 mm 0.00 in0.0 mm 0.00 in0.0 mm
05:54 PM 25.3°F-3.7°C 20.3°F-6.5°C 81% Calm Calm -- 30.35 in1027.8 mb 0.00 in0.0 mm 0.00 in0.0 mm 0.00 in0.0 mm
05:59 PM 25.2°F-3.8°C 20.5°F-6.4°C 82% Calm Calm -- 30.35 in1027.8 mb 0.00 in0.0 mm 0.00 in0.0 mm 0.00 in0.0 mm
06:04 PM 25.2°F-3.8°C 20.7°F-6.3°C 83% Calm Calm -- 30.35 in1027.8 mb 0.00 in0.0 mm 0.00 in0.0 mm 0.00 in0.0 mm
06:09 PM 25.0°F-3.9°C 20.5°F-6.4°C 83% Calm Calm -- 30.35 in1027.8 mb 0.00 in0.0 mm 0.00 in0.0 mm 0.00 in0.0 mm
06:14 PM 24.6°F-4.1°C 20.5°F-6.4°C 84% Calm Calm -- 30.34 in1027.4 mb 0.00 in0.0 mm 0.00 in0.0 mm 0.00 in0.0 mm
06:19 PM 24.6°F-4.1°C 20.5°F-6.4°C 84% Calm Calm -- 30.35 in1027.8 mb 0.00 in0.0 mm 0.00 in0.0 mm 0.00 in0.0 mm
06:24 PM 24.6°F-4.1°C 20.5°F-6.4°C 84% Calm Calm -- 30.34 in1027.4 mb 0.00 in0.0 mm 0.00 in0.0 mm 0.00 in0.0 mm
06:29 PM 24.6°F-4.1°C 20.5°F-6.4°C 84% Calm Calm -- 30.35 in1027.8 mb 0.00 in0.0 mm 0.00 in0.0 mm 0.00 in0.0 mm
06:34 PM 24.6°F-4.1°C 20.8°F-6.2°C 85% Calm Calm -- 30.35 in1027.8 mb 0.00 in0.0 mm 0.00 in0.0 mm 0.00 in0.0 mm
06:39 PM 24.6°F-4.1°C 20.8°F-6.2°C 85% Calm Calm -- 30.35 in1027.8 mb 0.00 in0.0 mm 0.00 in0.0 mm 0.00 in0.0 mm
06:44 PM 24.6°F-4.1°C 20.8°F-6.2°C 85% Calm Calm -- 30.35 in1027.8 mb 0.00 in0.0 mm 0.00 in0.0 mm 0.00 in0.0 mm
06:49 PM 24.6°F-4.1°C 20.8°F-6.2°C 85% Calm Calm -- 30.34 in1027.4 mb 0.00 in0.0 mm 0.00 in0.0 mm 0.00 in0.0 mm
06:54 PM 24.4°F-4.2°C 20.7°F-6.3°C 85% Calm Calm -- 30.34 in1027.4 mb 0.00 in0.0 mm 0.00 in0.0 mm 0.00 in0.0 mm
06:59 PM 24.3°F-4.3°C 20.5°F-6.4°C 85% Calm Calm -- 30.34 in1027.4 mb 0.00 in0.0 mm 0.00 in0.0 mm 0.00 in0.0 mm
07:04 PM 24.3°F-4.3°C 20.5°F-6.4°C 85% Calm Calm -- 30.34 in1027.4 mb 0.00 in0.0 mm 0.00 in0.0 mm 0.00 in0.0 mm
07:09 PM 24.1°F-4.4°C 20.3°F-6.5°C 85% Calm Calm -- 30.34 in1027.4 mb 0.00 in0.0 mm 0.00 in0.0 mm 0.00 in0.0 mm
07:14 PM 24.1°F-4.4°C 20.5°F-6.4°C 86% Calm Calm -- 30.35 in1027.8 mb 0.00 in0.0 mm 0.00 in0.0 mm 0.00 in0.0 mm
07:19 PM 24.1°F-4.4°C 20.5°F-6.4°C 86% Calm Calm -- 30.35 in1027.8 mb 0.00 in0.0 mm 0.00 in0.0 mm 0.00 in0.0 mm
07:24 PM 24.1°F-4.4°C 20.5°F-6.4°C 86% Calm Calm -- 30.35 in1027.8 mb 0.00 in0.0 mm 0.00 in0.0 mm 0.00 in0.0 mm
07:29 PM 24.1°F-4.4°C 20.5°F-6.4°C 86% Calm Calm -- 30.35 in1027.8 mb 0.00 in0.0 mm 0.00 in0.0 mm 0.00 in0.0 mm
07:34 PM 24.1°F-4.4°C 20.5°F-6.4°C 86% Calm Calm -- 30.35 in1027.8 mb 0.00 in0.0 mm 0.00 in0.0 mm 0.00 in0.0 mm
07:39 PM 23.9°F-4.5°C 20.3°F-6.5°C 86% Calm Calm -- 30.35 in1027.8 mb 0.00 in0.0 mm 0.00 in0.0 mm 0.00 in0.0 mm
07:44 PM 23.5°F-4.7°C 19.8°F-6.8°C 85% Calm Calm -- 30.35 in1027.8 mb 0.00 in0.0 mm 0.00 in0.0 mm 0.00 in0.0 mm
07:49 PM 23.4°F-4.8°C 19.8°F-6.8°C 86% Calm Calm -- 30.35 in1027.8 mb 0.00 in0.0 mm 0.00 in0.0 mm 0.00 in0.0 mm
07:54 PM 23.0°F-5.0°C 19.4°F-7.0°C 86% Calm Calm -- 30.35 in1027.8 mb 0.00 in0.0 mm 0.00 in0.0 mm 0.00 in0.0 mm
07:59 PM 23.0°F-5.0°C 19.8°F-6.8°C 87% Calm Calm -- 30.35 in1027.8 mb 0.00 in0.0 mm 0.00 in0.0 mm 0.00 in0.0 mm
08:04 PM 22.8°F-5.1°C 19.6°F-6.9°C 87% Calm Calm -- 30.35 in1027.8 mb 0.00 in0.0 mm 0.00 in0.0 mm 0.00 in0.0 mm
08:09 PM 22.8°F-5.1°C 19.8°F-6.8°C 88% Calm Calm -- 30.34 in1027.4 mb 0.00 in0.0 mm 0.00 in0.0 mm 0.00 in0.0 mm
08:14 PM 23.2°F-4.9°C 20.5°F-6.4°C 89% Calm Calm -- 30.34 in1027.4 mb 0.00 in0.0 mm 0.00 in0.0 mm 0.00 in0.0 mm
08:19 PM 23.2°F-4.9°C 20.5°F-6.4°C 89% Calm Calm -- 30.34 in1027.4 mb 0.00 in0.0 mm 0.00 in0.0 mm 0.00 in0.0 mm
08:24 PM 23.4°F-4.8°C 20.7°F-6.3°C 89% Calm Calm -- 30.34 in1027.4 mb 0.00 in0.0 mm 0.00 in0.0 mm 0.00 in0.0 mm
08:29 PM 23.4°F-4.8°C 20.3°F-6.5°C 88% Calm Calm -- 30.34 in1027.4 mb 0.00 in0.0 mm 0.00 in0.0 mm 0.00 in0.0 mm
08:34 PM 23.5°F-4.7°C 20.5°F-6.4°C 88% Calm Calm -- 30.34 in1027.4 mb 0.00 in0.0 mm 0.00 in0.0 mm 0.00 in0.0 mm
08:39 PM 23.4°F-4.8°C 20.3°F-6.5°C 88% Calm Calm -- 30.34 in1027.4 mb 0.00 in0.0 mm 0.00 in0.0 mm 0.00 in0.0 mm
08:44 PM 23.4°F-4.8°C 20.3°F-6.5°C 88% Calm Calm -- 30.33 in1027.1 mb 0.00 in0.0 mm 0.00 in0.0 mm 0.00 in0.0 mm
08:49 PM 23.4°F-4.8°C 20.3°F-6.5°C 88% Calm Calm -- 30.33 in1027.1 mb 0.00 in0.0 mm 0.00 in0.0 mm 0.00 in0.0 mm
08:54 PM 23.2°F-4.9°C 20.1°F-6.6°C 88% Calm Calm -- 30.33 in1027.1 mb 0.00 in0.0 mm 0.00 in0.0 mm 0.00 in0.0 mm
08:59 PM 23.0°F-5.0°C 19.9°F-6.7°C 88% Calm Calm -- 30.33 in1027.1 mb 0.00 in0.0 mm 0.00 in0.0 mm 0.00 in0.0 mm
09:04 PM 23.2°F-4.9°C 20.5°F-6.4°C 89% Calm Calm -- 30.33 in1027.1 mb 0.00 in0.0 mm 0.00 in0.0 mm 0.00 in0.0 mm
09:09 PM 23.2°F-4.9°C 20.5°F-6.4°C 89% Calm Calm -- 30.33 in1027.1 mb 0.00 in0.0 mm 0.00 in0.0 mm 0.00 in0.0 mm
09:14 PM 23.4°F-4.8°C 20.7°F-6.3°C 89% Calm Calm -- 30.33 in1027.1 mb 0.00 in0.0 mm 0.00 in0.0 mm 0.00 in0.0 mm
09:19 PM 23.2°F-4.9°C 20.1°F-6.6°C 88% Calm Calm -- 30.33 in1027.1 mb 0.00 in0.0 mm 0.00 in0.0 mm 0.00 in0.0 mm
09:24 PM 23.2°F-4.9°C 20.1°F-6.6°C 88% Calm Calm -- 30.33 in1027.1 mb 0.00 in0.0 mm 0.00 in0.0 mm 0.00 in0.0 mm
09:29 PM 23.2°F-4.9°C 20.1°F-6.6°C 88% Calm Calm -- 30.32 in1026.8 mb 0.00 in0.0 mm 0.00 in0.0 mm 0.00 in0.0 mm
09:34 PM 23.4°F-4.8°C 20.3°F-6.5°C 88% Calm Calm -- 30.32 in1026.8 mb 0.00 in0.0 mm 0.00 in0.0 mm 0.00 in0.0 mm
09:39 PM 23.4°F-4.8°C 20.3°F-6.5°C 88% Calm Calm 0.9 mph1.4 kmh 30.32 in1026.8 mb 0.00 in0.0 mm 0.00 in0.0 mm 0.00 in0.0 mm
09:44 PM 23.5°F-4.7°C 20.5°F-6.4°C 88% Calm Calm 0.9 mph1.4 kmh 30.32 in1026.8 mb 0.00 in0.0 mm 0.00 in0.0 mm 0.00 in0.0 mm
09:49 PM 23.5°F-4.7°C 20.3°F-6.5°C 87% Calm Calm -- 30.32 in1026.8 mb 0.00 in0.0 mm 0.00 in0.0 mm 0.00 in0.0 mm
09:54 PM 23.5°F-4.7°C 20.3°F-6.5°C 87% Calm Calm -- 30.32 in1026.8 mb 0.00 in0.0 mm 0.00 in0.0 mm 0.00 in0.0 mm
09:59 PM 23.5°F-4.7°C 19.9°F-6.7°C 86% Calm Calm -- 30.32 in1026.8 mb 0.00 in0.0 mm 0.00 in0.0 mm 0.00 in0.0 mm
10:04 PM 23.4°F-4.8°C 20.1°F-6.6°C 87% Calm Calm -- 30.32 in1026.8 mb 0.00 in0.0 mm 0.00 in0.0 mm 0.00 in0.0 mm
10:09 PM 23.2°F-4.9°C 19.9°F-6.7°C 87% Calm Calm -- 30.31 in1026.4 mb 0.00 in0.0 mm 0.00 in0.0 mm 0.00 in0.0 mm
10:14 PM 23.2°F-4.9°C 19.9°F-6.7°C 87% Calm Calm -- 30.31 in1026.4 mb 0.00 in0.0 mm 0.00 in0.0 mm 0.00 in0.0 mm
10:19 PM 23.2°F-4.9°C 19.9°F-6.7°C 87% Calm Calm -- 30.31 in1026.4 mb 0.00 in0.0 mm 0.00 in0.0 mm 0.00 in0.0 mm
10:24 PM 23.2°F-4.9°C 19.9°F-6.7°C 87% Calm Calm -- 30.31 in1026.4 mb 0.00 in0.0 mm 0.00 in0.0 mm 0.00 in0.0 mm
10:29 PM 23.2°F-4.9°C 19.9°F-6.7°C 87% Calm Calm -- 30.31 in1026.4 mb 0.00 in0.0 mm 0.00 in0.0 mm 0.00 in0.0 mm
10:34 PM 23.2°F-4.9°C 19.9°F-6.7°C 87% Calm Calm -- 30.31 in1026.4 mb 0.00 in0.0 mm 0.00 in0.0 mm 0.00 in0.0 mm
10:39 PM 23.2°F-4.9°C 19.9°F-6.7°C 87% Calm Calm -- 30.31 in1026.4 mb 0.00 in0.0 mm 0.00 in0.0 mm 0.00 in0.0 mm
10:45 PM 23.2°F-4.9°C 19.9°F-6.7°C 87% Calm Calm -- 30.31 in1026.4 mb 0.00 in0.0 mm 0.00 in0.0 mm 0.00 in0.0 mm
10:50 PM 23.2°F-4.9°C 19.9°F-6.7°C 87% Calm Calm -- 30.31 in1026.4 mb 0.00 in0.0 mm 0.00 in0.0 mm 0.00 in0.0 mm
10:55 PM 23.4°F-4.8°C 20.1°F-6.6°C 87% Calm Calm -- 30.31 in1026.4 mb 0.00 in0.0 mm 0.00 in0.0 mm 0.00 in0.0 mm
11:00 PM 23.5°F-4.7°C 19.9°F-6.7°C 86% Calm Calm -- 30.31 in1026.4 mb 0.00 in0.0 mm 0.00 in0.0 mm 0.00 in0.0 mm
11:05 PM 23.4°F-4.8°C 19.8°F-6.8°C 86% Calm Calm -- 30.31 in1026.4 mb 0.00 in0.0 mm 0.00 in0.0 mm 0.00 in0.0 mm
11:10 PM 23.4°F-4.8°C 19.8°F-6.8°C 86% Calm Calm 1.0 mph1.6 kmh 30.31 in1026.4 mb 0.00 in0.0 mm 0.00 in0.0 mm 0.00 in0.0 mm
11:15 PM 23.4°F-4.8°C 19.8°F-6.8°C 86% Calm Calm -- 30.31 in1026.4 mb 0.00 in0.0 mm 0.00 in0.0 mm 0.00 in0.0 mm
11:20 PM 23.5°F-4.7°C 19.9°F-6.7°C 86% Calm Calm 0.9 mph1.4 kmh 30.31 in1026.4 mb 0.00 in0.0 mm 0.00 in0.0 mm 0.00 in0.0 mm
11:25 PM 23.5°F-4.7°C 19.9°F-6.7°C 86% Calm Calm 0.9 mph1.4 kmh 30.31 in1026.4 mb 0.00 in0.0 mm 0.00 in0.0 mm 0.00 in0.0 mm
11:30 PM 23.7°F-4.6°C 20.1°F-6.6°C 86% Calm Calm 0.9 mph1.4 kmh 30.30 in1026.1 mb 0.00 in0.0 mm 0.00 in0.0 mm 0.00 in0.0 mm
11:35 PM 23.9°F-4.5°C 20.1°F-6.6°C 85% Calm Calm 2.0 mph3.2 kmh 30.30 in1026.1 mb 0.00 in0.0 mm 0.00 in0.0 mm 0.00 in0.0 mm
11:40 PM 24.1°F-4.4°C 20.3°F-6.5°C 85% Calm Calm 0.9 mph1.4 kmh 30.30 in1026.1 mb 0.00 in0.0 mm 0.00 in0.0 mm 0.00 in0.0 mm
11:45 PM 24.1°F-4.4°C 20.3°F-6.5°C 85% Calm Calm 2.9 mph4.7 kmh 30.30 in1026.1 mb 0.00 in0.0 mm 0.00 in0.0 mm 0.00 in0.0 mm
11:50 PM 24.1°F-4.4°C 20.3°F-6.5°C 85% Calm Calm 2.9 mph4.7 kmh 30.30 in1026.1 mb 0.00 in0.0 mm 0.00 in0.0 mm 0.00 in0.0 mm
11:55 PM 24.3°F-4.3°C 20.5°F-6.4°C 85% Calm Calm 0.9 mph1.4 kmh 30.30 in1026.1 mb 0.00 in0.0 mm 0.00 in0.0 mm 0.00 in0.0 mm